sensor_id;sensor_type;location;lat;lon;timestamp;P1;durP1;ratioP1;P2;durP2;ratioP2
16320;SDS011;8269;50.990;4.494;2023-10-19T00:01:22;3.13;;;0.90;;
16320;SDS011;8269;50.990;4.494;2023-10-19T00:03:51;2.13;;;0.68;;
16320;SDS011;8269;50.990;4.494;2023-10-19T00:06:21;1.42;;;0.70;;
16320;SDS011;8269;50.990;4.494;2023-10-19T00:08:48;2.85;;;0.75;;
16320;SDS011;8269;50.990;4.494;2023-10-19T00:11:15;3.70;;;0.80;;
16320;SDS011;8269;50.990;4.494;2023-10-19T00:13:49;2.87;;;0.80;;
16320;SDS011;8269;50.990;4.494;2023-10-19T00:16:22;2.83;;;0.63;;
16320;SDS011;8269;50.990;4.494;2023-10-19T00:18:52;2.75;;;0.80;;
16320;SDS011;8269;50.990;4.494;2023-10-19T00:21:18;2.40;;;0.70;;
16320;SDS011;8269;50.990;4.494;2023-10-19T00:23:50;3.58;;;0.80;;
16320;SDS011;8269;50.990;4.494;2023-10-19T00:26:21;2.17;;;0.80;;
16320;SDS011;8269;50.990;4.494;2023-10-19T00:28:50;3.17;;;0.83;;
16320;SDS011;8269;50.990;4.494;2023-10-19T00:31:26;3.33;;;0.70;;
16320;SDS011;8269;50.990;4.494;2023-10-19T00:33:52;1.65;;;0.60;;
16320;SDS011;8269;50.990;4.494;2023-10-19T00:36:22;1.95;;;0.82;;
16320;SDS011;8269;50.990;4.494;2023-10-19T00:38:48;2.35;;;0.80;;
16320;SDS011;8269;50.990;4.494;2023-10-19T00:41:15;3.95;;;1.00;;
16320;SDS011;8269;50.990;4.494;2023-10-19T00:43:55;3.83;;;1.00;;
16320;SDS011;8269;50.990;4.494;2023-10-19T00:46:39;2.22;;;0.70;;
16320;SDS011;8269;50.990;4.494;2023-10-19T00:49:08;3.50;;;0.90;;
16320;SDS011;8269;50.990;4.494;2023-10-19T00:51:45;3.30;;;1.00;;
16320;SDS011;8269;50.990;4.494;2023-10-19T00:54:23;3.58;;;0.90;;
16320;SDS011;8269;50.990;4.494;2023-10-19T00:56:58;3.22;;;0.90;;
16320;SDS011;8269;50.990;4.494;2023-10-19T00:59:48;3.35;;;1.10;;
16320;SDS011;8269;50.990;4.494;2023-10-19T01:02:17;2.70;;;0.90;;
16320;SDS011;8269;50.990;4.494;2023-10-19T01:04:44;3.47;;;1.20;;
16320;SDS011;8269;50.990;4.494;2023-10-19T01:07:12;2.17;;;0.80;;
16320;SDS011;8269;50.990;4.494;2023-10-19T01:09:46;3.47;;;0.95;;
16320;SDS011;8269;50.990;4.494;2023-10-19T01:12:12;3.93;;;1.10;;
16320;SDS011;8269;50.990;4.494;2023-10-19T01:15:00;4.07;;;1.10;;
16320;SDS011;8269;50.990;4.494;2023-10-19T01:17:36;2.60;;;0.82;;
16320;SDS011;8269;50.990;4.494;2023-10-19T01:20:06;3.63;;;1.30;;
16320;SDS011;8269;50.990;4.494;2023-10-19T01:31:08;2.83;;;0.95;;
16320;SDS011;8269;50.990;4.494;2023-10-19T01:33:48;3.47;;;1.10;;
16320;SDS011;8269;50.990;4.494;2023-10-19T01:36:14;3.63;;;1.10;;
16320;SDS011;8269;50.990;4.494;2023-10-19T01:38:40;3.53;;;1.27;;
16320;SDS011;8269;50.990;4.494;2023-10-19T01:41:06;5.07;;;1.40;;
16320;SDS011;8269;50.990;4.494;2023-10-19T01:43:42;3.30;;;1.50;;
16320;SDS011;8269;50.990;4.494;2023-10-19T01:46:10;4.82;;;1.60;;
16320;SDS011;8269;50.990;4.494;2023-10-19T01:48:40;4.60;;;1.90;;
16320;SDS011;8269;50.990;4.494;2023-10-19T01:51:08;4.55;;;1.85;;
16320;SDS011;8269;50.990;4.494;2023-10-19T01:53:36;5.35;;;2.30;;
16320;SDS011;8269;50.990;4.494;2023-10-19T01:56:13;5.70;;;2.38;;
16320;SDS011;8269;50.990;4.494;2023-10-19T01:58:40;6.35;;;2.30;;
16320;SDS011;8269;50.990;4.494;2023-10-19T02:01:07;6.88;;;2.65;;
16320;SDS011;8269;50.990;4.494;2023-10-19T02:03:37;7.50;;;2.58;;
16320;SDS011;8269;50.990;4.494;2023-10-19T02:06:07;6.28;;;2.63;;
16320;SDS011;8269;50.990;4.494;2023-10-19T02:08:54;5.90;;;2.25;;
16320;SDS011;8269;50.990;4.494;2023-10-19T02:11:25;6.28;;;2.38;;
16320;SDS011;8269;50.990;4.494;2023-10-19T02:13:54;6.53;;;2.33;;
16320;SDS011;8269;50.990;4.494;2023-10-19T02:16:24;5.18;;;2.15;;
16320;SDS011;8269;50.990;4.494;2023-10-19T02:18:51;5.87;;;2.13;;
16320;SDS011;8269;50.990;4.494;2023-10-19T02:21:18;5.97;;;1.77;;
16320;SDS011;8269;50.990;4.494;2023-10-19T02:23:47;4.30;;;1.90;;
16320;SDS011;8269;50.990;4.494;2023-10-19T02:26:16;5.60;;;1.80;;
16320;SDS011;8269;50.990;4.494;2023-10-19T02:28:48;7.43;;;1.87;;
16320;SDS011;8269;50.990;4.494;2023-10-19T02:31:17;4.45;;;1.65;;
16320;SDS011;8269;50.990;4.494;2023-10-19T02:33:46;5.20;;;1.73;;
16320;SDS011;8269;50.990;4.494;2023-10-19T02:36:28;3.65;;;1.40;;
16320;SDS011;8269;50.990;4.494;2023-10-19T02:38:56;5.45;;;1.60;;
16320;SDS011;8269;50.990;4.494;2023-10-19T02:41:25;6.55;;;1.50;;
16320;SDS011;8269;50.990;4.494;2023-10-19T02:43:52;4.77;;;1.50;;
16320;SDS011;8269;50.990;4.494;2023-10-19T02:46:33;6.35;;;1.70;;
16320;SDS011;8269;50.990;4.494;2023-10-19T02:49:03;4.57;;;1.50;;
16320;SDS011;8269;50.990;4.494;2023-10-19T02:51:37;4.70;;;1.55;;
16320;SDS011;8269;50.990;4.494;2023-10-19T02:54:04;4.60;;;1.45;;
16320;SDS011;8269;50.990;4.494;2023-10-19T02:56:31;6.50;;;1.52;;
16320;SDS011;8269;50.990;4.494;2023-10-19T02:58:57;5.70;;;1.47;;
16320;SDS011;8269;50.990;4.494;2023-10-19T03:01:29;6.75;;;1.80;;
16320;SDS011;8269;50.990;4.494;2023-10-19T03:03:59;6.57;;;1.70;;
16320;SDS011;8269;50.990;4.494;2023-10-19T03:06:26;5.55;;;1.63;;
16320;SDS011;8269;50.990;4.494;2023-10-19T03:08:58;4.63;;;1.70;;
16320;SDS011;8269;50.990;4.494;2023-10-19T03:11:29;5.72;;;1.80;;
16320;SDS011;8269;50.990;4.494;2023-10-19T03:13:59;6.35;;;1.90;;
16320;SDS011;8269;50.990;4.494;2023-10-19T03:16:29;6.47;;;1.70;;
16320;SDS011;8269;50.990;4.494;2023-10-19T03:18:55;4.70;;;1.70;;
16320;SDS011;8269;50.990;4.494;2023-10-19T03:21:21;5.50;;;1.60;;
16320;SDS011;8269;50.990;4.494;2023-10-19T03:23:53;5.93;;;1.83;;
16320;SDS011;8269;50.990;4.494;2023-10-19T03:26:21;4.80;;;1.80;;
16320;SDS011;8269;50.990;4.494;2023-10-19T03:28:51;4.95;;;1.98;;
16320;SDS011;8269;50.990;4.494;2023-10-19T03:31:28;6.43;;;1.90;;
16320;SDS011;8269;50.990;4.494;2023-10-19T03:33:54;7.30;;;2.10;;
16320;SDS011;8269;50.990;4.494;2023-10-19T03:36:21;6.13;;;2.05;;
16320;SDS011;8269;50.990;4.494;2023-10-19T03:38:47;6.20;;;1.88;;
16320;SDS011;8269;50.990;4.494;2023-10-19T03:41:14;7.30;;;2.10;;
16320;SDS011;8269;50.990;4.494;2023-10-19T03:43:41;6.95;;;2.00;;
16320;SDS011;8269;50.990;4.494;2023-10-19T03:46:07;6.95;;;1.88;;
16320;SDS011;8269;50.990;4.494;2023-10-19T03:48:53;6.13;;;1.87;;
16320;SDS011;8269;50.990;4.494;2023-10-19T03:51:23;6.05;;;1.98;;
16320;SDS011;8269;50.990;4.494;2023-10-19T03:54:04;6.65;;;2.00;;
16320;SDS011;8269;50.990;4.494;2023-10-19T03:56:38;7.20;;;1.90;;
16320;SDS011;8269;50.990;4.494;2023-10-19T03:59:03;6.27;;;1.70;;
16320;SDS011;8269;50.990;4.494;2023-10-19T04:01:31;6.70;;;1.80;;
16320;SDS011;8269;50.990;4.494;2023-10-19T04:03:56;7.00;;;1.98;;
16320;SDS011;8269;50.990;4.494;2023-10-19T04:06:22;7.30;;;2.15;;
16320;SDS011;8269;50.990;4.494;2023-10-19T04:08:48;8.30;;;2.10;;
16320;SDS011;8269;50.990;4.494;2023-10-19T04:11:16;6.67;;;2.17;;
16320;SDS011;8269;50.990;4.494;2023-10-19T04:13:47;5.55;;;1.90;;
16320;SDS011;8269;50.990;4.494;2023-10-19T04:16:17;5.32;;;1.80;;
16320;SDS011;8269;50.990;4.494;2023-10-19T04:18:44;6.70;;;2.03;;
16320;SDS011;8269;50.990;4.494;2023-10-19T04:21:10;6.95;;;2.00;;
16320;SDS011;8269;50.990;4.494;2023-10-19T04:23:35;6.77;;;1.80;;
16320;SDS011;8269;50.990;4.494;2023-10-19T04:26:02;6.78;;;1.80;;
16320;SDS011;8269;50.990;4.494;2023-10-19T04:28:36;8.38;;;2.00;;
16320;SDS011;8269;50.990;4.494;2023-10-19T04:31:15;5.45;;;1.50;;
16320;SDS011;8269;50.990;4.494;2023-10-19T04:33:42;4.90;;;1.63;;
16320;SDS011;8269;50.990;4.494;2023-10-19T04:36:11;8.17;;;1.87;;
16320;SDS011;8269;50.990;4.494;2023-10-19T04:38:40;7.32;;;2.10;;
16320;SDS011;8269;50.990;4.494;2023-10-19T04:41:09;6.47;;;1.95;;
16320;SDS011;8269;50.990;4.494;2023-10-19T04:43:36;5.88;;;1.70;;
16320;SDS011;8269;50.990;4.494;2023-10-19T04:46:04;6.93;;;1.88;;
16320;SDS011;8269;50.990;4.494;2023-10-19T04:48:36;5.97;;;1.88;;
16320;SDS011;8269;50.990;4.494;2023-10-19T04:51:04;6.90;;;1.70;;
16320;SDS011;8269;50.990;4.494;2023-10-19T04:53:31;6.40;;;1.90;;
16320;SDS011;8269;50.990;4.494;2023-10-19T04:55:57;6.40;;;1.77;;
16320;SDS011;8269;50.990;4.494;2023-10-19T04:58:25;7.90;;;1.80;;
16320;SDS011;8269;50.990;4.494;2023-10-19T05:00:54;6.57;;;1.80;;
16320;SDS011;8269;50.990;4.494;2023-10-19T05:03:20;6.65;;;1.90;;
16320;SDS011;8269;50.990;4.494;2023-10-19T05:05:46;7.67;;;1.90;;
16320;SDS011;8269;50.990;4.494;2023-10-19T05:08:12;8.15;;;2.00;;
16320;SDS011;8269;50.990;4.494;2023-10-19T05:10:38;8.90;;;3.57;;
16320;SDS011;8269;50.990;4.494;2023-10-19T05:13:03;6.78;;;1.70;;
16320;SDS011;8269;50.990;4.494;2023-10-19T05:15:29;5.97;;;1.90;;
16320;SDS011;8269;50.990;4.494;2023-10-19T05:17:55;6.17;;;1.87;;
16320;SDS011;8269;50.990;4.494;2023-10-19T05:20:21;6.70;;;1.90;;
16320;SDS011;8269;50.990;4.494;2023-10-19T05:22:48;6.47;;;1.95;;
16320;SDS011;8269;50.990;4.494;2023-10-19T05:25:14;8.35;;;1.92;;
16320;SDS011;8269;50.990;4.494;2023-10-19T05:27:40;6.90;;;1.90;;
16320;SDS011;8269;50.990;4.494;2023-10-19T05:30:07;7.37;;;1.83;;
16320;SDS011;8269;50.990;4.494;2023-10-19T05:32:36;6.72;;;2.10;;
16320;SDS011;8269;50.990;4.494;2023-10-19T05:35:03;8.40;;;2.30;;
16320;SDS011;8269;50.990;4.494;2023-10-19T05:37:30;7.07;;;2.10;;
16320;SDS011;8269;50.990;4.494;2023-10-19T05:39:58;6.80;;;1.80;;
16320;SDS011;8269;50.990;4.494;2023-10-19T05:42:24;8.20;;;2.10;;
16320;SDS011;8269;50.990;4.494;2023-10-19T05:44:50;7.15;;;2.03;;
16320;SDS011;8269;50.990;4.494;2023-10-19T05:47:16;6.90;;;1.85;;
16320;SDS011;8269;50.990;4.494;2023-10-19T05:49:42;7.57;;;2.00;;
16320;SDS011;8269;50.990;4.494;2023-10-19T05:52:08;7.40;;;1.95;;
16320;SDS011;8269;50.990;4.494;2023-10-19T05:54:35;4.60;;;1.75;;
16320;SDS011;8269;50.990;4.494;2023-10-19T05:57:02;5.68;;;1.83;;
16320;SDS011;8269;50.990;4.494;2023-10-19T05:59:33;7.35;;;2.08;;
16320;SDS011;8269;50.990;4.494;2023-10-19T06:01:59;7.10;;;1.88;;
16320;SDS011;8269;50.990;4.494;2023-10-19T06:04:27;8.55;;;2.38;;
16320;SDS011;8269;50.990;4.494;2023-10-19T06:06:53;8.93;;;2.03;;
16320;SDS011;8269;50.990;4.494;2023-10-19T06:09:19;6.03;;;2.03;;
16320;SDS011;8269;50.990;4.494;2023-10-19T06:11:45;6.97;;;2.25;;
16320;SDS011;8269;50.990;4.494;2023-10-19T06:14:11;7.53;;;2.30;;
16320;SDS011;8269;50.990;4.494;2023-10-19T06:16:37;7.00;;;2.00;;
16320;SDS011;8269;50.990;4.494;2023-10-19T06:19:03;8.50;;;2.60;;
16320;SDS011;8269;50.990;4.494;2023-10-19T06:21:29;8.30;;;2.38;;
16320;SDS011;8269;50.990;4.494;2023-10-19T06:23:56;7.28;;;2.15;;
16320;SDS011;8269;50.990;4.494;2023-10-19T06:26:22;8.73;;;2.63;;
16320;SDS011;8269;50.990;4.494;2023-10-19T06:28:48;7.23;;;2.30;;
16320;SDS011;8269;50.990;4.494;2023-10-19T06:31:16;6.80;;;1.90;;
16320;SDS011;8269;50.990;4.494;2023-10-19T06:33:42;8.80;;;2.00;;
16320;SDS011;8269;50.990;4.494;2023-10-19T06:36:07;5.80;;;2.10;;
16320;SDS011;8269;50.990;4.494;2023-10-19T06:38:34;6.20;;;1.83;;
16320;SDS011;8269;50.990;4.494;2023-10-19T06:40:59;6.72;;;1.80;;
16320;SDS011;8269;50.990;4.494;2023-10-19T06:43:28;7.80;;;2.17;;
16320;SDS011;8269;50.990;4.494;2023-10-19T06:45:55;8.43;;;2.25;;
16320;SDS011;8269;50.990;4.494;2023-10-19T06:48:21;7.35;;;2.17;;
16320;SDS011;8269;50.990;4.494;2023-10-19T06:50:47;8.20;;;2.17;;
16320;SDS011;8269;50.990;4.494;2023-10-19T06:53:12;6.93;;;2.00;;
16320;SDS011;8269;50.990;4.494;2023-10-19T06:55:38;8.45;;;1.90;;
16320;SDS011;8269;50.990;4.494;2023-10-19T06:58:05;7.90;;;2.10;;
16320;SDS011;8269;50.990;4.494;2023-10-19T07:00:31;6.60;;;2.13;;
16320;SDS011;8269;50.990;4.494;2023-10-19T07:02:58;6.97;;;2.00;;
16320;SDS011;8269;50.990;4.494;2023-10-19T07:05:27;8.33;;;2.03;;
16320;SDS011;8269;50.990;4.494;2023-10-19T07:07:56;8.05;;;2.25;;
16320;SDS011;8269;50.990;4.494;2023-10-19T07:10:24;5.78;;;1.70;;
16320;SDS011;8269;50.990;4.494;2023-10-19T07:12:53;8.98;;;2.33;;
16320;SDS011;8269;50.990;4.494;2023-10-19T07:15:20;8.55;;;1.95;;
16320;SDS011;8269;50.990;4.494;2023-10-19T07:17:47;8.10;;;2.43;;
16320;SDS011;8269;50.990;4.494;2023-10-19T07:20:14;7.65;;;1.83;;
16320;SDS011;8269;50.990;4.494;2023-10-19T07:22:50;6.22;;;1.98;;
16320;SDS011;8269;50.990;4.494;2023-10-19T07:25:20;5.53;;;2.03;;
16320;SDS011;8269;50.990;4.494;2023-10-19T07:27:49;7.20;;;1.95;;
16320;SDS011;8269;50.990;4.494;2023-10-19T07:30:16;7.85;;;1.98;;
16320;SDS011;8269;50.990;4.494;2023-10-19T07:32:49;5.80;;;1.80;;
16320;SDS011;8269;50.990;4.494;2023-10-19T07:35:18;8.32;;;2.20;;
16320;SDS011;8269;50.990;4.494;2023-10-19T07:37:45;7.88;;;2.00;;
16320;SDS011;8269;50.990;4.494;2023-10-19T07:40:13;8.75;;;2.10;;
16320;SDS011;8269;50.990;4.494;2023-10-19T07:42:39;7.50;;;1.80;;
16320;SDS011;8269;50.990;4.494;2023-10-19T07:45:05;8.55;;;2.00;;
16320;SDS011;8269;50.990;4.494;2023-10-19T07:47:37;6.65;;;1.80;;
16320;SDS011;8269;50.990;4.494;2023-10-19T07:50:05;8.15;;;2.38;;
16320;SDS011;8269;50.990;4.494;2023-10-19T07:52:38;8.18;;;2.00;;
16320;SDS011;8269;50.990;4.494;2023-10-19T07:55:04;7.47;;;2.17;;
16320;SDS011;8269;50.990;4.494;2023-10-19T07:57:33;10.00;;;2.00;;
16320;SDS011;8269;50.990;4.494;2023-10-19T07:59:59;8.27;;;2.10;;
16320;SDS011;8269;50.990;4.494;2023-10-19T08:02:25;9.00;;;2.03;;
16320;SDS011;8269;50.990;4.494;2023-10-19T08:04:51;9.38;;;2.40;;
16320;SDS011;8269;50.990;4.494;2023-10-19T08:07:17;9.23;;;1.88;;
16320;SDS011;8269;50.990;4.494;2023-10-19T08:09:44;8.53;;;2.10;;
16320;SDS011;8269;50.990;4.494;2023-10-19T08:12:10;10.13;;;2.72;;
16320;SDS011;8269;50.990;4.494;2023-10-19T08:14:38;7.93;;;2.30;;
16320;SDS011;8269;50.990;4.494;2023-10-19T08:17:04;8.88;;;2.17;;
16320;SDS011;8269;50.990;4.494;2023-10-19T08:19:30;11.15;;;2.40;;
16320;SDS011;8269;50.990;4.494;2023-10-19T08:21:58;7.03;;;2.10;;
16320;SDS011;8269;50.990;4.494;2023-10-19T08:24:24;8.27;;;2.30;;
16320;SDS011;8269;50.990;4.494;2023-10-19T08:26:52;9.93;;;2.67;;
16320;SDS011;8269;50.990;4.494;2023-10-19T08:29:17;9.10;;;2.23;;
16320;SDS011;8269;50.990;4.494;2023-10-19T08:31:44;7.53;;;2.00;;
16320;SDS011;8269;50.990;4.494;2023-10-19T08:34:13;7.07;;;2.10;;
16320;SDS011;8269;50.990;4.494;2023-10-19T08:36:41;7.80;;;2.50;;
16320;SDS011;8269;50.990;4.494;2023-10-19T08:39:08;8.75;;;2.00;;
16320;SDS011;8269;50.990;4.494;2023-10-19T08:41:37;9.75;;;2.28;;
16320;SDS011;8269;50.990;4.494;2023-10-19T08:44:07;7.83;;;2.23;;
16320;SDS011;8269;50.990;4.494;2023-10-19T08:46:39;7.70;;;2.08;;
16320;SDS011;8269;50.990;4.494;2023-10-19T08:49:11;10.23;;;2.47;;
16320;SDS011;8269;50.990;4.494;2023-10-19T08:51:38;9.20;;;2.30;;
16320;SDS011;8269;50.990;4.494;2023-10-19T08:54:05;9.98;;;2.30;;
16320;SDS011;8269;50.990;4.494;2023-10-19T08:56:31;7.65;;;2.30;;
16320;SDS011;8269;50.990;4.494;2023-10-19T08:58:59;8.02;;;2.10;;
16320;SDS011;8269;50.990;4.494;2023-10-19T09:01:27;8.65;;;2.10;;
16320;SDS011;8269;50.990;4.494;2023-10-19T09:03:56;6.88;;;2.03;;
16320;SDS011;8269;50.990;4.494;2023-10-19T09:06:22;9.07;;;2.17;;
16320;SDS011;8269;50.990;4.494;2023-10-19T09:08:48;9.23;;;2.40;;
16320;SDS011;8269;50.990;4.494;2023-10-19T09:11:19;8.97;;;2.30;;
16320;SDS011;8269;50.990;4.494;2023-10-19T09:16:24;10.07;;;2.60;;
16320;SDS011;8269;50.990;4.494;2023-10-19T09:18:59;9.68;;;2.35;;
16320;SDS011;8269;50.990;4.494;2023-10-19T09:21:28;7.22;;;2.10;;
16320;SDS011;8269;50.990;4.494;2023-10-19T09:23:56;9.70;;;2.20;;
16320;SDS011;8269;50.990;4.494;2023-10-19T09:26:23;7.07;;;2.10;;
16320;SDS011;8269;50.990;4.494;2023-10-19T09:28:50;8.43;;;2.13;;
16320;SDS011;8269;50.990;4.494;2023-10-19T09:31:20;7.60;;;2.38;;
16320;SDS011;8269;50.990;4.494;2023-10-19T09:33:50;9.20;;;2.00;;
16320;SDS011;8269;50.990;4.494;2023-10-19T09:36:15;7.97;;;2.03;;
16320;SDS011;8269;50.990;4.494;2023-10-19T09:38:51;9.52;;;2.47;;
16320;SDS011;8269;50.990;4.494;2023-10-19T09:41:17;9.15;;;2.20;;
16320;SDS011;8269;50.990;4.494;2023-10-19T09:43:48;8.90;;;2.38;;
16320;SDS011;8269;50.990;4.494;2023-10-19T09:49:49;9.65;;;2.53;;
16320;SDS011;8269;50.990;4.494;2023-10-19T09:52:23;10.00;;;2.30;;
16320;SDS011;8269;50.990;4.494;2023-10-19T09:55:06;8.90;;;2.28;;
16320;SDS011;8269;50.990;4.494;2023-10-19T10:00:32;7.20;;;2.10;;
16320;SDS011;8269;50.990;4.494;2023-10-19T10:02:59;10.25;;;2.40;;
16320;SDS011;8269;50.990;4.494;2023-10-19T10:10:43;9.55;;;2.10;;
16320;SDS011;8269;50.990;4.494;2023-10-19T10:15:56;8.18;;;2.20;;
16320;SDS011;8269;50.990;4.494;2023-10-19T10:18:26;8.90;;;2.30;;
16320;SDS011;8269;50.990;4.494;2023-10-19T10:21:04;7.60;;;2.00;;
16320;SDS011;8269;50.990;4.494;2023-10-19T10:23:34;8.45;;;2.05;;
16320;SDS011;8269;50.990;4.494;2023-10-19T10:26:08;7.90;;;1.90;;
16320;SDS011;8269;50.990;4.494;2023-10-19T10:28:35;9.30;;;2.25;;
16320;SDS011;8269;50.990;4.494;2023-10-19T10:36:10;8.57;;;2.10;;
16320;SDS011;8269;50.990;4.494;2023-10-19T10:38:36;8.52;;;2.40;;
16320;SDS011;8269;50.990;4.494;2023-10-19T10:41:03;6.88;;;2.13;;
16320;SDS011;8269;50.990;4.494;2023-10-19T10:43:55;6.07;;;1.95;;
16320;SDS011;8269;50.990;4.494;2023-10-19T10:46:36;8.27;;;2.22;;
16320;SDS011;8269;50.990;4.494;2023-10-19T10:49:09;7.85;;;2.20;;
16320;SDS011;8269;50.990;4.494;2023-10-19T10:51:34;7.97;;;2.10;;
16320;SDS011;8269;50.990;4.494;2023-10-19T10:54:00;7.47;;;2.10;;
16320;SDS011;8269;50.990;4.494;2023-10-19T10:56:26;9.32;;;2.28;;
16320;SDS011;8269;50.990;4.494;2023-10-19T10:58:53;7.50;;;1.90;;
16320;SDS011;8269;50.990;4.494;2023-10-19T11:01:30;8.65;;;2.10;;
16320;SDS011;8269;50.990;4.494;2023-10-19T11:04:07;6.78;;;1.90;;
16320;SDS011;8269;50.990;4.494;2023-10-19T11:06:45;9.60;;;2.30;;
16320;SDS011;8269;50.990;4.494;2023-10-19T11:09:15;7.03;;;2.28;;
16320;SDS011;8269;50.990;4.494;2023-10-19T11:11:47;8.85;;;2.40;;
16320;SDS011;8269;50.990;4.494;2023-10-19T11:14:17;8.27;;;2.17;;
16320;SDS011;8269;50.990;4.494;2023-10-19T11:17:16;6.87;;;1.87;;
16320;SDS011;8269;50.990;4.494;2023-10-19T11:19:42;7.88;;;2.13;;
16320;SDS011;8269;50.990;4.494;2023-10-19T11:22:11;8.80;;;2.30;;
16320;SDS011;8269;50.990;4.494;2023-10-19T11:24:36;7.90;;;2.40;;
16320;SDS011;8269;50.990;4.494;2023-10-19T11:27:05;9.10;;;2.60;;
16320;SDS011;8269;50.990;4.494;2023-10-19T11:29:32;6.60;;;2.20;;
16320;SDS011;8269;50.990;4.494;2023-10-19T11:31:59;7.80;;;2.55;;
16320;SDS011;8269;50.990;4.494;2023-10-19T11:34:25;8.48;;;2.47;;
16320;SDS011;8269;50.990;4.494;2023-10-19T11:36:56;6.93;;;2.30;;
16320;SDS011;8269;50.990;4.494;2023-10-19T11:39:24;8.87;;;2.60;;
16320;SDS011;8269;50.990;4.494;2023-10-19T11:41:51;10.73;;;2.73;;
16320;SDS011;8269;50.990;4.494;2023-10-19T11:44:18;7.63;;;2.30;;
16320;SDS011;8269;50.990;4.494;2023-10-19T11:46:44;8.75;;;2.20;;
16320;SDS011;8269;50.990;4.494;2023-10-19T11:49:10;10.23;;;2.55;;
16320;SDS011;8269;50.990;4.494;2023-10-19T11:54:34;8.40;;;2.40;;
16320;SDS011;8269;50.990;4.494;2023-10-19T11:57:12;9.13;;;2.55;;
16320;SDS011;8269;50.990;4.494;2023-10-19T11:59:38;11.43;;;2.70;;
16320;SDS011;8269;50.990;4.494;2023-10-19T12:02:05;9.25;;;2.40;;
16320;SDS011;8269;50.990;4.494;2023-10-19T12:04:45;7.97;;;2.30;;
16320;SDS011;8269;50.990;4.494;2023-10-19T12:07:11;10.87;;;2.50;;
16320;SDS011;8269;50.990;4.494;2023-10-19T12:09:37;9.30;;;2.83;;
16320;SDS011;8269;50.990;4.494;2023-10-19T12:12:06;9.63;;;2.55;;
16320;SDS011;8269;50.990;4.494;2023-10-19T12:14:35;9.07;;;3.50;;
16320;SDS011;8269;50.990;4.494;2023-10-19T12:17:01;8.15;;;2.20;;
16320;SDS011;8269;50.990;4.494;2023-10-19T12:19:30;6.57;;;2.15;;
16320;SDS011;8269;50.990;4.494;2023-10-19T12:22:16;7.05;;;2.50;;
16320;SDS011;8269;50.990;4.494;2023-10-19T12:24:42;7.97;;;2.47;;
16320;SDS011;8269;50.990;4.494;2023-10-19T12:27:09;7.35;;;2.17;;
16320;SDS011;8269;50.990;4.494;2023-10-19T12:29:35;7.93;;;2.40;;
16320;SDS011;8269;50.990;4.494;2023-10-19T12:32:07;7.40;;;2.30;;
16320;SDS011;8269;50.990;4.494;2023-10-19T12:34:35;6.80;;;2.28;;
16320;SDS011;8269;50.990;4.494;2023-10-19T12:37:00;7.47;;;2.10;;
16320;SDS011;8269;50.990;4.494;2023-10-19T12:39:28;6.00;;;1.92;;
16320;SDS011;8269;50.990;4.494;2023-10-19T12:42:14;6.83;;;2.30;;
16320;SDS011;8269;50.990;4.494;2023-10-19T12:44:40;7.60;;;2.00;;
16320;SDS011;8269;50.990;4.494;2023-10-19T12:47:10;6.30;;;2.20;;
16320;SDS011;8269;50.990;4.494;2023-10-19T12:49:39;5.65;;;2.05;;
16320;SDS011;8269;50.990;4.494;2023-10-19T12:52:06;4.40;;;1.70;;
16320;SDS011;8269;50.990;4.494;2023-10-19T12:54:35;3.30;;;1.58;;
16320;SDS011;8269;50.990;4.494;2023-10-19T12:57:24;5.32;;;1.65;;
16320;SDS011;8269;50.990;4.494;2023-10-19T12:59:52;5.90;;;2.00;;
16320;SDS011;8269;50.990;4.494;2023-10-19T13:02:17;4.77;;;1.77;;
16320;SDS011;8269;50.990;4.494;2023-10-19T13:04:45;7.00;;;1.90;;
16320;SDS011;8269;50.990;4.494;2023-10-19T13:07:11;5.40;;;1.60;;
16320;SDS011;8269;50.990;4.494;2023-10-19T13:09:37;4.93;;;1.60;;
16320;SDS011;8269;50.990;4.494;2023-10-19T13:12:03;4.20;;;1.50;;
16320;SDS011;8269;50.990;4.494;2023-10-19T13:14:32;4.18;;;1.58;;
16320;SDS011;8269;50.990;4.494;2023-10-19T13:16:59;3.22;;;1.52;;
16320;SDS011;8269;50.990;4.494;2023-10-19T13:19:25;2.80;;;1.50;;
16320;SDS011;8269;50.990;4.494;2023-10-19T13:21:51;4.68;;;1.45;;
16320;SDS011;8269;50.990;4.494;2023-10-19T13:24:18;3.90;;;1.47;;
16320;SDS011;8269;50.990;4.494;2023-10-19T13:26:49;2.92;;;1.48;;
16320;SDS011;8269;50.990;4.494;2023-10-19T13:29:16;4.07;;;1.52;;
16320;SDS011;8269;50.990;4.494;2023-10-19T13:31:42;4.00;;;1.30;;
16320;SDS011;8269;50.990;4.494;2023-10-19T13:34:14;2.80;;;1.48;;
16320;SDS011;8269;50.990;4.494;2023-10-19T13:36:40;2.97;;;1.30;;
16320;SDS011;8269;50.990;4.494;2023-10-19T13:39:06;3.03;;;1.10;;
16320;SDS011;8269;50.990;4.494;2023-10-19T13:41:38;2.05;;;1.10;;
16320;SDS011;8269;50.990;4.494;2023-10-19T13:44:03;3.28;;;1.20;;
16320;SDS011;8269;50.990;4.494;2023-10-19T13:46:30;3.50;;;1.20;;
16320;SDS011;8269;50.990;4.494;2023-10-19T13:48:56;3.65;;;1.30;;
16320;SDS011;8269;50.990;4.494;2023-10-19T13:51:22;3.73;;;1.17;;
16320;SDS011;8269;50.990;4.494;2023-10-19T13:53:47;2.42;;;1.20;;
16320;SDS011;8269;50.990;4.494;2023-10-19T13:56:16;2.10;;;1.20;;
16320;SDS011;8269;50.990;4.494;2023-10-19T13:58:42;4.43;;;1.40;;
16320;SDS011;8269;50.990;4.494;2023-10-19T14:01:08;3.00;;;1.50;;
16320;SDS011;8269;50.990;4.494;2023-10-19T14:03:39;2.15;;;1.15;;
16320;SDS011;8269;50.990;4.494;2023-10-19T14:06:05;2.63;;;1.15;;
16320;SDS011;8269;50.990;4.494;2023-10-19T14:08:41;2.75;;;1.30;;
16320;SDS011;8269;50.990;4.494;2023-10-19T14:11:08;2.22;;;1.35;;
16320;SDS011;8269;50.990;4.494;2023-10-19T14:13:34;2.77;;;1.10;;
16320;SDS011;8269;50.990;4.494;2023-10-19T14:16:04;2.10;;;0.90;;
16320;SDS011;8269;50.990;4.494;2023-10-19T14:18:31;3.03;;;1.27;;
16320;SDS011;8269;50.990;4.494;2023-10-19T14:20:56;2.22;;;1.30;;
16320;SDS011;8269;50.990;4.494;2023-10-19T14:23:22;2.50;;;1.00;;
16320;SDS011;8269;50.990;4.494;2023-10-19T14:25:49;2.20;;;1.20;;
16320;SDS011;8269;50.990;4.494;2023-10-19T14:28:15;1.70;;;1.00;;
16320;SDS011;8269;50.990;4.494;2023-10-19T14:30:41;2.20;;;1.13;;
16320;SDS011;8269;50.990;4.494;2023-10-19T14:33:07;4.13;;;1.48;;
16320;SDS011;8269;50.990;4.494;2023-10-19T14:35:36;2.03;;;1.20;;
16320;SDS011;8269;50.990;4.494;2023-10-19T14:38:06;2.08;;;1.20;;
16320;SDS011;8269;50.990;4.494;2023-10-19T14:40:34;2.53;;;1.37;;
16320;SDS011;8269;50.990;4.494;2023-10-19T14:43:01;2.42;;;1.20;;
16320;SDS011;8269;50.990;4.494;2023-10-19T14:45:27;2.47;;;1.38;;
16320;SDS011;8269;50.990;4.494;2023-10-19T14:47:58;2.35;;;1.20;;
16320;SDS011;8269;50.990;4.494;2023-10-19T14:50:24;3.13;;;1.20;;
16320;SDS011;8269;50.990;4.494;2023-10-19T14:52:52;1.77;;;1.10;;
16320;SDS011;8269;50.990;4.494;2023-10-19T14:55:22;3.63;;;1.30;;
16320;SDS011;8269;50.990;4.494;2023-10-19T14:57:55;2.13;;;1.17;;
16320;SDS011;8269;50.990;4.494;2023-10-19T15:00:25;2.10;;;1.10;;
16320;SDS011;8269;50.990;4.494;2023-10-19T15:02:59;1.65;;;1.05;;
16320;SDS011;8269;50.990;4.494;2023-10-19T15:05:27;2.73;;;1.10;;
16320;SDS011;8269;50.990;4.494;2023-10-19T15:07:53;3.42;;;1.23;;
16320;SDS011;8269;50.990;4.494;2023-10-19T15:10:24;2.97;;;1.33;;
16320;SDS011;8269;50.990;4.494;2023-10-19T15:12:50;1.90;;;1.10;;
16320;SDS011;8269;50.990;4.494;2023-10-19T15:15:16;2.27;;;1.20;;
16320;SDS011;8269;50.990;4.494;2023-10-19T15:17:43;2.75;;;1.25;;
16320;SDS011;8269;50.990;4.494;2023-10-19T15:20:10;1.88;;;1.10;;
16320;SDS011;8269;50.990;4.494;2023-10-19T15:22:37;2.45;;;1.10;;
16320;SDS011;8269;50.990;4.494;2023-10-19T15:25:06;3.08;;;1.30;;
16320;SDS011;8269;50.990;4.494;2023-10-19T15:27:33;2.58;;;1.10;;
16320;SDS011;8269;50.990;4.494;2023-10-19T15:30:02;2.53;;;1.40;;
16320;SDS011;8269;50.990;4.494;2023-10-19T15:32:33;2.33;;;1.33;;
16320;SDS011;8269;50.990;4.494;2023-10-19T15:35:00;2.42;;;1.20;;
16320;SDS011;8269;50.990;4.494;2023-10-19T15:37:28;2.47;;;1.35;;
16320;SDS011;8269;50.990;4.494;2023-10-19T15:39:54;2.27;;;1.40;;
16320;SDS011;8269;50.990;4.494;2023-10-19T15:42:22;3.67;;;1.90;;
16320;SDS011;8269;50.990;4.494;2023-10-19T15:44:50;3.20;;;1.70;;